sensor_id;sensor_type;location;lat;lon;timestamp;pressure;altitude;pressure_sealevel;temperature;humidity
69766;BME280;57039;48.014;21.384;2023-10-13T00:00:52;100788.16;;;15.49;100.00
69766;BME280;57039;48.014;21.384;2023-10-13T00:02:01;100783.72;;;15.49;100.00
69766;BME280;57039;48.014;21.384;2023-10-13T00:03:09;100782.66;;;15.52;100.00
69766;BME280;57039;48.014;21.384;2023-10-13T00:04:18;100772.28;;;15.49;100.00
69766;BME280;57039;48.014;21.384;2023-10-13T00:05:28;100778.00;;;15.56;100.00
69766;BME280;57039;48.014;21.384;2023-10-13T00:06:31;100782.34;;;15.57;100.00
69766;BME280;57039;48.014;21.384;2023-10-13T00:07:34;100784.12;;;15.56;100.00
69766;BME280;57039;48.014;21.384;2023-10-13T00:08:37;100778.22;;;15.52;100.00
69766;BME280;57039;48.014;21.384;2023-10-13T00:09:42;100763.56;;;15.36;100.00
69766;BME280;57039;48.014;21.384;2023-10-13T00:10:45;100777.56;;;15.49;100.00
69766;BME280;57039;48.014;21.384;2023-10-13T00:11:48;100782.03;;;15.48;100.00
69766;BME280;57039;48.014;21.384;2023-10-13T00:12:51;100775.06;;;15.47;100.00
69766;BME280;57039;48.014;21.384;2023-10-13T00:13:54;100765.31;;;15.48;100.00
69766;BME280;57039;48.014;21.384;2023-10-13T00:14:57;100777.72;;;15.47;100.00
69766;BME280;57039;48.014;21.384;2023-10-13T00:16:06;100772.72;;;15.43;100.00
69766;BME280;57039;48.014;21.384;2023-10-13T00:17:12;100787.97;;;15.39;100.00
69766;BME280;57039;48.014;21.384;2023-10-13T00:18:29;100791.78;;;15.35;100.00
69766;BME280;57039;48.014;21.384;2023-10-13T00:19:44;100778.06;;;15.30;100.00
69766;BME280;57039;48.014;21.384;2023-10-13T00:20:49;100780.59;;;15.32;100.00
69766;BME280;57039;48.014;21.384;2023-10-13T00:21:52;100786.72;;;15.32;100.00
69766;BME280;57039;48.014;21.384;2023-10-13T00:22:58;100790.31;;;15.31;100.00
69766;BME280;57039;48.014;21.384;2023-10-13T00:24:02;100792.31;;;15.27;100.00
69766;BME280;57039;48.014;21.384;2023-10-13T00:25:15;100787.03;;;15.27;100.00
69766;BME280;57039;48.014;21.384;2023-10-13T00:26:23;100785.87;;;15.32;100.00
69766;BME280;57039;48.014;21.384;2023-10-13T00:27:33;100784.09;;;15.32;100.00
69766;BME280;57039;48.014;21.384;2023-10-13T00:28:37;100788.41;;;15.33;100.00
69766;BME280;57039;48.014;21.384;2023-10-13T00:29:51;100787.34;;;15.36;100.00
69766;BME280;57039;48.014;21.384;2023-10-13T00:30:54;100788.31;;;15.35;100.00
69766;BME280;57039;48.014;21.384;2023-10-13T00:32:04;100789.37;;;15.32;100.00
69766;BME280;57039;48.014;21.384;2023-10-13T00:33:07;100786.37;;;15.37;100.00
69766;BME280;57039;48.014;21.384;2023-10-13T00:34:12;100778.78;;;15.32;100.00
69766;BME280;57039;48.014;21.384;2023-10-13T00:35:18;100780.59;;;15.32;100.00
69766;BME280;57039;48.014;21.384;2023-10-13T00:36:41;100777.22;;;15.29;100.00
69766;BME280;57039;48.014;21.384;2023-10-13T00:38:13;100787.56;;;15.33;100.00
69766;BME280;57039;48.014;21.384;2023-10-13T00:39:16;100780.59;;;15.32;100.00
69766;BME280;57039;48.014;21.384;2023-10-13T00:40:21;100785.87;;;15.32;100.00
69766;BME280;57039;48.014;21.384;2023-10-13T00:41:33;100793.06;;;15.29;100.00
69766;BME280;57039;48.014;21.384;2023-10-13T00:42:57;100785.22;;;15.28;100.00
69766;BME280;57039;48.014;21.384;2023-10-13T00:44:20;100789.16;;;15.22;100.00
69766;BME280;57039;48.014;21.384;2023-10-13T00:45:40;100790.13;;;15.21;100.00
69766;BME280;57039;48.014;21.384;2023-10-13T00:46:44;100792.22;;;15.16;100.00
69766;BME280;57039;48.014;21.384;2023-10-13T00:47:48;100796.44;;;15.19;100.00
69766;BME280;57039;48.014;21.384;2023-10-13T00:48:52;100802.91;;;15.15;100.00
69766;BME280;57039;48.014;21.384;2023-10-13T00:49:55;100804.72;;;15.14;100.00
69766;BME280;57039;48.014;21.384;2023-10-13T00:52:06;100800.06;;;15.05;100.00
69766;BME280;57039;48.014;21.384;2023-10-13T00:53:12;100809.38;;;15.11;100.00
69766;BME280;57039;48.014;21.384;2023-10-13T00:54:17;100807.56;;;15.11;100.00
69766;BME280;57039;48.014;21.384;2023-10-13T00:55:21;100814.66;;;15.11;100.00
69766;BME280;57039;48.014;21.384;2023-10-13T00:56:26;100819.75;;;15.14;100.00
69766;BME280;57039;48.014;21.384;2023-10-13T00:57:29;100811.69;;;15.15;100.00
69766;BME280;57039;48.014;21.384;2023-10-13T00:58:34;100812.87;;;15.11;100.00
69766;BME280;57039;48.014;21.384;2023-10-13T00:59:37;100810.72;;;15.16;100.00
69766;BME280;57039;48.014;21.384;2023-10-13T01:00:41;100810.94;;;15.13;100.00
69766;BME280;57039;48.014;21.384;2023-10-13T01:01:50;100811.69;;;15.15;100.00
69766;BME280;57039;48.014;21.384;2023-10-13T01:02:58;100795.28;;;15.10;100.00
69766;BME280;57039;48.014;21.384;2023-10-13T01:04:11;100811.25;;;15.21;100.00
69766;BME280;57039;48.014;21.384;2023-10-13T01:05:17;100821.19;;;15.18;100.00
69766;BME280;57039;48.014;21.384;2023-10-13T01:06:22;100818.44;;;15.19;100.00
69766;BME280;57039;48.014;21.384;2023-10-13T01:07:29;100820.25;;;15.19;100.00
69766;BME280;57039;48.014;21.384;2023-10-13T01:08:33;100813.91;;;15.21;100.00
69766;BME280;57039;48.014;21.384;2023-10-13T01:09:41;100817.50;;;15.20;100.00
69766;BME280;57039;48.014;21.384;2023-10-13T01:10:49;100808.62;;;15.21;100.00
69766;BME280;57039;48.014;21.384;2023-10-13T01:11:52;100812.00;;;15.23;100.00
69766;BME280;57039;48.014;21.384;2023-10-13T01:12:56;100822.38;;;15.26;100.00
69766;BME280;57039;48.014;21.384;2023-10-13T01:13:59;100814.44;;;15.26;100.00
69766;BME280;57039;48.014;21.384;2023-10-13T01:15:05;100819.81;;;15.25;100.00
69766;BME280;57039;48.014;21.384;2023-10-13T01:16:13;100822.25;;;15.15;100.00
69766;BME280;57039;48.014;21.384;2023-10-13T01:17:17;100828.72;;;15.11;100.00
69766;BME280;57039;48.014;21.384;2023-10-13T01:18:21;100823.22;;;15.14;100.00
69766;BME280;57039;48.014;21.384;2023-10-13T01:19:24;100825.88;;;15.14;100.00
69766;BME280;57039;48.014;21.384;2023-10-13T01:20:30;100829.44;;;15.13;100.00
69766;BME280;57039;48.014;21.384;2023-10-13T01:21:34;100827.97;;;15.09;100.00
69766;BME280;57039;48.014;21.384;2023-10-13T01:22:37;100824.69;;;15.05;100.00
69766;BME280;57039;48.014;21.384;2023-10-13T01:23:43;100830.41;;;15.12;100.00
69766;BME280;57039;48.014;21.384;2023-10-13T01:24:47;100831.38;;;15.11;100.00
69766;BME280;57039;48.014;21.384;2023-10-13T01:25:51;100841.94;;;15.11;100.00
69766;BME280;57039;48.014;21.384;2023-10-13T01:26:57;100843.72;;;15.11;100.00
69766;BME280;57039;48.014;21.384;2023-10-13T01:28:00;100838.25;;;15.14;100.00
69766;BME280;57039;48.014;21.384;2023-10-13T01:29:06;100845.28;;;15.13;100.00
69766;BME280;57039;48.014;21.384;2023-10-13T01:30:17;100843.41;;;15.15;100.00
69766;BME280;57039;48.014;21.384;2023-10-13T01:31:19;100843.41;;;15.15;100.00
69766;BME280;57039;48.014;21.384;2023-10-13T01:32:33;100847.72;;;15.16;100.00
69766;BME280;57039;48.014;21.384;2023-10-13T01:33:37;100830.63;;;15.09;100.00
69766;BME280;57039;48.014;21.384;2023-10-13T01:34:40;100841.72;;;15.14;100.00
69766;BME280;57039;48.014;21.384;2023-10-13T01:35:48;100851.88;;;15.20;100.00
69766;BME280;57039;48.014;21.384;2023-10-13T01:36:52;100855.03;;;15.25;100.00
69766;BME280;57039;48.014;21.384;2023-10-13T01:37:56;100848.81;;;15.26;100.00
69766;BME280;57039;48.014;21.384;2023-10-13T01:38:58;100850.37;;;15.29;100.00
69766;BME280;57039;48.014;21.384;2023-10-13T01:40:04;100854.72;;;15.30;100.00
69766;BME280;57039;48.014;21.384;2023-10-13T01:41:08;100851.22;;;15.29;100.00
69766;BME280;57039;48.014;21.384;2023-10-13T01:42:11;100851.53;;;15.25;100.00
69766;BME280;57039;48.014;21.384;2023-10-13T01:43:17;100846.69;;;15.32;100.00
69766;BME280;57039;48.014;21.384;2023-10-13T01:44:24;100850.91;;;15.34;100.00
69766;BME280;57039;48.014;21.384;2023-10-13T01:45:31;100850.91;;;15.34;100.00
69766;BME280;57039;48.014;21.384;2023-10-13T01:46:34;100852.59;;;15.35;100.00
69766;BME280;57039;48.014;21.384;2023-10-13T01:47:39;100857.06;;;15.35;100.00
69766;BME280;57039;48.014;21.384;2023-10-13T01:48:43;100850.37;;;15.29;100.00
69766;BME280;57039;48.014;21.384;2023-10-13T01:49:49;100862.75;;;15.28;100.00
69766;BME280;57039;48.014;21.384;2023-10-13T01:50:56;100854.81;;;15.28;100.00
69766;BME280;57039;48.014;21.384;2023-10-13T01:52:02;100855.78;;;15.27;100.00
69766;BME280;57039;48.014;21.384;2023-10-13T01:53:06;100862.84;;;15.27;100.00
69766;BME280;57039;48.014;21.384;2023-10-13T01:54:14;100870.66;;;15.28;100.00
69766;BME280;57039;48.014;21.384;2023-10-13T01:55:20;100870.56;;;15.30;100.00
69766;BME280;57039;48.014;21.384;2023-10-13T01:56:24;100861.59;;;15.33;100.00
69766;BME280;57039;48.014;21.384;2023-10-13T01:57:27;100866.03;;;15.32;100.00
69766;BME280;57039;48.014;21.384;2023-10-13T01:58:30;100861.06;;;15.27;100.00
69766;BME280;57039;48.014;21.384;2023-10-13T01:59:33;100858.53;;;15.26;100.00
69766;BME280;57039;48.014;21.384;2023-10-13T02:00:46;100860.31;;;15.25;100.00
69766;BME280;57039;48.014;21.384;2023-10-13T02:01:52;100859.25;;;15.28;100.00
69766;BME280;57039;48.014;21.384;2023-10-13T02:02:58;100859.47;;;15.38;100.00
69766;BME280;57039;48.014;21.384;2023-10-13T02:04:04;100858.94;;;15.33;100.00
69766;BME280;57039;48.014;21.384;2023-10-13T02:05:07;100854.81;;;15.03;100.00
69766;BME280;57039;48.014;21.384;2023-10-13T02:06:11;100858.72;;;15.10;100.00
69766;BME280;57039;48.014;21.384;2023-10-13T02:07:19;100860.84;;;15.05;100.00
69766;BME280;57039;48.014;21.384;2023-10-13T02:08:23;100859.12;;;15.04;100.00
69766;BME280;57039;48.014;21.384;2023-10-13T02:09:26;100845.28;;;15.00;100.00
69766;BME280;57039;48.014;21.384;2023-10-13T02:10:29;100854.69;;;15.04;100.00
69766;BME280;57039;48.014;21.384;2023-10-13T02:11:36;100847.41;;;14.95;100.00
69766;BME280;57039;48.014;21.384;2023-10-13T02:12:40;100856.50;;;15.04;100.00
69766;BME280;57039;48.014;21.384;2023-10-13T02:13:45;100858.09;;;15.06;100.00
69766;BME280;57039;48.014;21.384;2023-10-13T02:14:53;100864.00;;;15.10;100.00
69766;BME280;57039;48.014;21.384;2023-10-13T02:15:57;100869.09;;;15.13;100.00
69766;BME280;57039;48.014;21.384;2023-10-13T02:17:00;100865.72;;;15.11;100.00
69766;BME280;57039;48.014;21.384;2023-10-13T02:18:17;100873.09;;;15.19;100.00
69766;BME280;57039;48.014;21.384;2023-10-13T02:19:28;100870.25;;;15.22;100.00
69766;BME280;57039;48.014;21.384;2023-10-13T02:20:31;100871.72;;;15.13;100.00
69766;BME280;57039;48.014;21.384;2023-10-13T02:21:44;100861.78;;;15.04;100.00
69766;BME280;57039;48.014;21.384;2023-10-13T02:22:49;100867.59;;;15.09;100.00
69766;BME280;57039;48.014;21.384;2023-10-13T02:23:54;100877.97;;;15.12;100.00
69766;BME280;57039;48.014;21.384;2023-10-13T02:25:03;100869.28;;;15.10;100.00
69766;BME280;57039;48.014;21.384;2023-10-13T02:26:09;100872.34;;;15.04;100.00
69766;BME280;57039;48.014;21.384;2023-10-13T02:27:17;100876.03;;;15.01;100.00
69766;BME280;57039;48.014;21.384;2023-10-13T02:28:25;100868.31;;;14.98;100.00
69766;BME280;57039;48.014;21.384;2023-10-13T02:29:31;100872.97;;;14.95;100.00
69766;BME280;57039;48.014;21.384;2023-10-13T02:30:42;100870.47;;;14.93;100.00
69766;BME280;57039;48.014;21.384;2023-10-13T02:31:50;100872.25;;;14.93;100.00
69766;BME280;57039;48.014;21.384;2023-10-13T02:33:00;100866.00;;;14.94;100.00
69766;BME280;57039;48.014;21.384;2023-10-13T02:34:08;100864.34;;;14.93;100.00
69766;BME280;57039;48.014;21.384;2023-10-13T02:35:11;100869.78;;;14.90;100.00
69766;BME280;57039;48.014;21.384;2023-10-13T02:36:21;100867.28;;;14.88;100.00
69766;BME280;57039;48.014;21.384;2023-10-13T02:37:39;100867.34;;;14.87;100.00
69766;BME280;57039;48.014;21.384;2023-10-13T02:38:46;100868.44;;;14.84;100.00
69766;BME280;57039;48.014;21.384;2023-10-13T02:39:49;100866.63;;;14.84;100.00
69766;BME280;57039;48.014;21.384;2023-10-13T02:40:52;100867.56;;;14.83;100.00
69766;BME280;57039;48.014;21.384;2023-10-13T02:41:56;100871.91;;;14.84;100.00
69766;BME280;57039;48.014;21.384;2023-10-13T02:43:00;100864.91;;;14.83;100.00
69766;BME280;57039;48.014;21.384;2023-10-13T02:44:07;100870.97;;;14.86;100.00
69766;BME280;57039;48.014;21.384;2023-10-13T02:45:12;100870.41;;;14.80;100.00
69766;BME280;57039;48.014;21.384;2023-10-13T02:46:15;100874.75;;;14.81;100.00
69766;BME280;57039;48.014;21.384;2023-10-13T02:47:18;100873.94;;;14.81;100.00
69766;BME280;57039;48.014;21.384;2023-10-13T02:48:22;100878.53;;;14.77;100.00
69766;BME280;57039;48.014;21.384;2023-10-13T02:49:27;100884.78;;;14.76;100.00
69766;BME280;57039;48.014;21.384;2023-10-13T02:50:30;100887.53;;;14.75;100.00
69766;BME280;57039;48.014;21.384;2023-10-13T02:51:36;100885.75;;;14.75;100.00
69766;BME280;57039;48.014;21.384;2023-10-13T02:52:39;100882.34;;;14.73;100.00
69766;BME280;57039;48.014;21.384;2023-10-13T02:53:45;100881.72;;;14.70;100.00
69766;BME280;57039;48.014;21.384;2023-10-13T02:54:51;100881.59;;;14.71;100.00
69766;BME280;57039;48.014;21.384;2023-10-13T02:55:55;100878.03;;;14.72;100.00
69766;BME280;57039;48.014;21.384;2023-10-13T02:57:06;100880.87;;;14.69;100.00
69766;BME280;57039;48.014;21.384;2023-10-13T02:58:09;100876.31;;;14.71;100.00
69766;BME280;57039;48.014;21.384;2023-10-13T02:59:12;100871.91;;;14.72;100.00
69766;BME280;57039;48.014;21.384;2023-10-13T03:00:16;100872.00;;;14.70;100.00
69766;BME280;57039;48.014;21.384;2023-10-13T03:01:20;100876.50;;;14.68;100.00
69766;BME280;57039;48.014;21.384;2023-10-13T03:02:23;100874.28;;;14.62;100.00
69766;BME280;57039;48.014;21.384;2023-10-13T03:03:30;100869.56;;;14.67;100.00
69766;BME280;57039;48.014;21.384;2023-10-13T03:04:33;100869.62;;;14.66;100.00
69766;BME280;57039;48.014;21.384;2023-10-13T03:05:36;100860.66;;;14.68;100.00
69766;BME280;57039;48.014;21.384;2023-10-13T03:06:41;100863.31;;;14.68;100.00
69766;BME280;57039;48.014;21.384;2023-10-13T03:07:44;100860.03;;;14.65;100.00
69766;BME280;57039;48.014;21.384;2023-10-13T03:08:47;100864.47;;;14.64;100.00
69766;BME280;57039;48.014;21.384;2023-10-13T03:09:50;100866.16;;;14.65;100.00
69766;BME280;57039;48.014;21.384;2023-10-13T03:10:55;100864.28;;;14.67;100.00
69766;BME280;57039;48.014;21.384;2023-10-13T03:11:58;100866.91;;;14.67;100.00
69766;BME280;57039;48.014;21.384;2023-10-13T03:13:00;100869.75;;;14.64;100.00
69766;BME280;57039;48.014;21.384;2023-10-13T03:14:04;100867.13;;;14.64;100.00
69766;BME280;57039;48.014;21.384;2023-10-13T03:15:10;100870.41;;;14.68;100.00
69766;BME280;57039;48.014;21.384;2023-10-13T03:16:20;100866.06;;;14.67;100.00
69766;BME280;57039;48.014;21.384;2023-10-13T03:17:23;100865.94;;;14.68;100.00
69766;BME280;57039;48.014;21.384;2023-10-13T03:18:47;100869.34;;;14.70;100.00
69766;BME280;57039;48.014;21.384;2023-10-13T03:19:59;100873.88;;;14.68;100.00
69766;BME280;57039;48.014;21.384;2023-10-13T03:21:03;100873.88;;;14.68;100.00
69766;BME280;57039;48.014;21.384;2023-10-13T03:22:10;100875.03;;;14.64;100.00
69766;BME280;57039;48.014;21.384;2023-10-13T03:23:18;100875.03;;;14.64;100.00
69766;BME280;57039;48.014;21.384;2023-10-13T03:24:22;100847.37;;;14.43;100.00
69766;BME280;57039;48.014;21.384;2023-10-13T03:25:36;100880.53;;;14.61;100.00
69766;BME280;57039;48.014;21.384;2023-10-13T03:26:45;100882.84;;;14.66;100.00
69766;BME280;57039;48.014;21.384;2023-10-13T03:27:56;100887.19;;;14.67;100.00
69766;BME280;57039;48.014;21.384;2023-10-13T03:29:03;100880.00;;;14.69;100.00
69766;BME280;57039;48.014;21.384;2023-10-13T03:30:11;100880.13;;;14.67;100.00
69766;BME280;57039;48.014;21.384;2023-10-13T03:31:21;100880.87;;;14.69;100.00
69766;BME280;57039;48.014;21.384;2023-10-13T03:32:30;100882.56;;;14.70;100.00
69766;BME280;57039;48.014;21.384;2023-10-13T03:33:36;100890.47;;;14.70;100.00
69766;BME280;57039;48.014;21.384;2023-10-13T03:34:42;100891.44;;;14.69;100.00
69766;BME280;57039;48.014;21.384;2023-10-13T03:35:55;100893.19;;;14.69;100.00
69766;BME280;57039;48.014;21.384;2023-10-13T03:37:08;100893.12;;;14.70;100.00
69766;BME280;57039;48.014;21.384;2023-10-13T03:38:20;100901.03;;;14.70;100.00
69766;BME280;57039;48.014;21.384;2023-10-13T03:39:23;100903.59;;;14.72;100.00
69766;BME280;57039;48.014;21.384;2023-10-13T03:40:31;100896.72;;;14.69;100.00
69766;BME280;57039;48.014;21.384;2023-10-13T03:41:34;100907.28;;;14.69;100.00
69766;BME280;57039;48.014;21.384;2023-10-13T03:42:40;100905.56;;;14.68;100.00
69766;BME280;57039;48.014;21.384;2023-10-13T03:43:43;100907.16;;;14.71;100.00
69766;BME280;57039;48.014;21.384;2023-10-13T03:44:55;100907.47;;;14.66;100.00
69766;BME280;57039;48.014;21.384;2023-10-13T03:45:58;100912.44;;;14.71;100.00
69766;BME280;57039;48.014;21.384;2023-10-13T03:47:10;100918.87;;;14.67;100.00
69766;BME280;57039;48.014;21.384;2023-10-13T03:48:21;100916.72;;;14.59;100.00
69766;BME280;57039;48.014;21.384;2023-10-13T03:49:31;100869.31;;;14.30;100.00
69766;BME280;57039;48.014;21.384;2023-10-13T03:50:40;100924.66;;;14.59;100.00
69766;BME280;57039;48.014;21.384;2023-10-13T03:52:02;100919.19;;;14.62;100.00
69766;BME280;57039;48.014;21.384;2023-10-13T03:53:08;100926.25;;;14.61;100.00
69766;BME280;57039;48.014;21.384;2023-10-13T03:54:16;100925.41;;;14.61;100.00
69766;BME280;57039;48.014;21.384;2023-10-13T03:55:19;100922.97;;;14.58;100.00
69766;BME280;57039;48.014;21.384;2023-10-13T03:56:24;100919.56;;;14.56;100.00
69766;BME280;57039;48.014;21.384;2023-10-13T03:57:34;100880.78;;;14.29;100.00
69766;BME280;57039;48.014;21.384;2023-10-13T03:58:41;100915.63;;;14.49;100.00
69766;BME280;57039;48.014;21.384;2023-10-13T03:59:50;100913.38;;;14.57;100.00
69766;BME280;57039;48.014;21.384;2023-10-13T04:00:53;100912.03;;;14.50;100.00
69766;BME280;57039;48.014;21.384;2023-10-13T04:01:56;100901.66;;;14.47;100.00
69766;BME280;57039;48.014;21.384;2023-10-13T04:03:04;100897.53;;;14.43;100.00
69766;BME280;57039;48.014;21.384;2023-10-13T04:04:19;100898.25;;;14.45;100.00
69766;BME280;57039;48.014;21.384;2023-10-13T04:05:45;100893.94;;;14.44;100.00
69766;BME280;57039;48.014;21.384;2023-10-13T04:07:09;100892.53;;;14.38;100.00
69766;BME280;57039;48.014;21.384;2023-10-13T04:08:12;100896.44;;;14.32;100.00
69766;BME280;57039;48.014;21.384;2023-10-13T04:09:30;100896.62;;;14.29;100.00
69766;BME280;57039;48.014;21.384;2023-10-13T04:10:33;100902.94;;;14.27;100.00
69766;BME280;57039;48.014;21.384;2023-10-13T04:11:57;100851.66;;;14.04;100.00
69766;BME280;57039;48.014;21.384;2023-10-13T04:13:06;100899.19;;;14.31;100.00
69766;BME280;57039;48.014;21.384;2023-10-13T04:14:39;100904.00;;;14.24;100.00
69766;BME280;57039;48.014;21.384;2023-10-13T04:16:00;100893.66;;;14.21;100.00
69766;BME280;57039;48.014;21.384;2023-10-13T04:17:22;100901.47;;;14.23;100.00
69766;BME280;57039;48.014;21.384;2023-10-13T04:18:26;100905.25;;;14.19;100.00
69766;BME280;57039;48.014;21.384;2023-10-13T04:19:55;100914.84;;;14.20;100.00
69766;BME280;57039;48.014;21.384;2023-10-13T04:21:10;100911.37;;;14.19;100.00
69766;BME280;57039;48.014;21.384;2023-10-13T04:22:38;100907.78;;;14.20;100.00
69766;BME280;57039;48.014;21.384;2023-10-13T04:23:53;100901.75;;;14.18;100.00
69766;BME280;57039;48.014;21.384;2023-10-13T04:25:26;100912.78;;;14.25;100.00
69766;BME280;57039;48.014;21.384;2023-10-13T04:26:48;100900.81;;;14.19;100.00
69766;BME280;57039;48.014;21.384;2023-10-13T04:28:12;100902.22;;;14.25;100.00
69766;BME280;57039;48.014;21.384;2023-10-13T04:29:19;100908.72;;;14.19;100.00
69766;BME280;57039;48.014;21.384;2023-10-13T04:31:56;100911.09;;;14.09;100.00
69766;BME280;57039;48.014;21.384;2023-10-13T04:33:03;100896.31;;;14.07;100.00
69766;BME280;57039;48.014;21.384;2023-10-13T04:34:20;100861.97;;;13.80;100.00
69766;BME280;57039;48.014;21.384;2023-10-13T04:35:30;100914.28;;;14.14;100.00
69766;BME280;57039;48.014;21.384;2023-10-13T04:36:38;100913.25;;;14.17;100.00
69766;BME280;57039;48.014;21.384;2023-10-13T04:37:48;100910.53;;;14.19;100.00
69766;BME280;57039;48.014;21.384;2023-10-13T04:39:00;100913.06;;;14.20;100.00
69766;BME280;57039;48.014;21.384;2023-10-13T04:40:12;100914.75;;;14.21;100.00
69766;BME280;57039;48.014;21.384;2023-10-13T04:41:17;100913.44;;;14.14;100.00
69766;BME280;57039;48.014;21.384;2023-10-13T04:42:25;100925.41;;;14.20;100.00
69766;BME280;57039;48.014;21.384;2023-10-13T04:43:47;100928.87;;;14.20;100.00
69766;BME280;57039;48.014;21.384;2023-10-13T04:44:59;100926.25;;;14.20;100.00
69766;BME280;57039;48.014;21.384;2023-10-13T04:46:18;100927.97;;;14.21;100.00
69766;BME280;57039;48.014;21.384;2023-10-13T04:47:38;100935.97;;;14.20;100.00
69766;BME280;57039;48.014;21.384;2023-10-13T04:48:46;100942.06;;;14.20;100.00
69766;BME280;57039;48.014;21.384;2023-10-13T04:49:50;100947.34;;;14.20;100.00
69766;BME280;57039;48.014;21.384;2023-10-13T04:50:59;100947.34;;;14.20;100.00
69766;BME280;57039;48.014;21.384;2023-10-13T04:52:23;100956.22;;;14.19;100.00
69766;BME280;57039;48.014;21.384;2023-10-13T04:53:53;100956.31;;;14.18;100.00
69766;BME280;57039;48.014;21.384;2023-10-13T04:55:07;100960.66;;;14.19;100.00
69766;BME280;57039;48.014;21.384;2023-10-13T04:56:39;100953.59;;;14.19;100.00
69766;BME280;57039;48.014;21.384;2023-10-13T04:58:01;100955.19;;;14.22;100.00
69766;BME280;57039;48.014;21.384;2023-10-13T04:59:17;100957.06;;;14.20;100.00
69766;BME280;57039;48.014;21.384;2023-10-13T05:00:21;100960.56;;;14.20;100.00
69766;BME280;57039;48.014;21.384;2023-10-13T05:01:23;100965.00;;;14.20;100.00
69766;BME280;57039;48.014;21.384;2023-10-13T05:02:26;100966.78;;;14.19;100.00
69766;BME280;57039;48.014;21.384;2023-10-13T05:03:39;100962.25;;;14.21;100.00
69766;BME280;57039;48.014;21.384;2023-10-13T05:04:57;100958.87;;;14.19;100.00
69766;BME280;57039;48.014;21.384;2023-10-13T05:06:20;100955.47;;;14.17;100.00
69766;BME280;57039;48.014;21.384;2023-10-13T05:08:02;100945.87;;;14.16;100.00
69766;BME280;57039;48.014;21.384;2023-10-13T05:09:24;100946.81;;;14.15;100.00
69766;BME280;57039;48.014;21.384;2023-10-13T05:10:45;100937.16;;;14.28;100.00
69766;BME280;57039;48.014;21.384;2023-10-13T05:12:07;100942.37;;;14.30;100.00
69766;BME280;57039;48.014;21.384;2023-10-13T05:13:28;100935.31;;;14.16;100.00
69766;BME280;57039;48.014;21.384;2023-10-13T05:14:50;100935.13;;;14.05;100.00
69766;BME280;57039;48.014;21.384;2023-10-13T05:16:12;100934.94;;;14.08;100.00
69766;BME280;57039;48.014;21.384;2023-10-13T05:17:33;100938.41;;;14.08;100.00
69766;BME280;57039;48.014;21.384;2023-10-13T05:18:55;100940.22;;;14.08;100.00
69766;BME280;57039;48.014;21.384;2023-10-13T05:20:17;100932.59;;;14.03;100.00
69766;BME280;57039;48.014;21.384;2023-10-13T05:21:39;100931.19;;;13.98;100.00
69766;BME280;57039;48.014;21.384;2023-10-13T05:23:01;100935.25;;;14.03;100.00
69766;BME280;57039;48.014;21.384;2023-10-13T05:24:22;100908.69;;;13.92;100.00
69766;BME280;57039;48.014;21.384;2023-10-13T05:25:44;100934.47;;;14.01;100.00
69766;BME280;57039;48.014;21.384;2023-10-13T05:27:06;100935.25;;;14.03;100.00
69766;BME280;57039;48.014;21.384;2023-10-13T05:28:28;100931.72;;;14.03;100.00
69766;BME280;57039;48.014;21.384;2023-10-13T05:29:50;100941.44;;;14.02;100.00
69766;BME280;57039;48.014;21.384;2023-10-13T05:31:12;100932.88;;;13.99;100.00
69766;BME280;57039;48.014;21.384;2023-10-13T05:32:33;100950.00;;;14.06;100.00
69766;BME280;57039;48.014;21.384;2023-10-13T05:33:55;100952.66;;;14.06;100.00
69766;BME280;57039;48.014;21.384;2023-10-13T05:35:17;100956.03;;;14.08;100.00
69766;BME280;57039;48.014;21.384;2023-10-13T05:36:38;100963.78;;;14.11;100.00
69766;BME280;57039;48.014;21.384;2023-10-13T05:38:00;100956.50;;;14.14;100.00
69766;BME280;57039;48.014;21.384;2023-10-13T05:39:23;100954.06;;;14.11;100.00
69766;BME280;57039;48.014;21.384;2023-10-13T05:40:58;100946.34;;;14.08;100.00
69766;BME280;57039;48.014;21.384;2023-10-13T05:42:25;100930.88;;;14.02;100.00
69766;BME280;57039;48.014;21.384;2023-10-13T05:43:47;100950.84;;;14.21;100.00
69766;BME280;57039;48.014;21.384;2023-10-13T05:45:09;100957.25;;;14.16;100.00
69766;BME280;57039;48.014;21.384;2023-10-13T05:46:21;100943.81;;;14.07;100.00
69766;BME280;57039;48.014;21.384;2023-10-13T05:47:30;100948.41;;;14.18;100.00
69766;BME280;57039;48.014;21.384;2023-10-13T05:48:48;100944.38;;;14.12;100.00
69766;BME280;57039;48.014;21.384;2023-10-13T05:50:03;100958.94;;;14.18;100.00
69766;BME280;57039;48.014;21.384;2023-10-13T05:51:22;100958.87;;;14.19;100.00
69766;BME280;57039;48.014;21.384;2023-10-13T05:52:45;100964.16;;;14.19;100.00
69766;BME280;57039;48.014;21.384;2023-10-13T05:54:01;100966.47;;;14.24;100.00
69766;BME280;57039;48.014;21.384;2023-10-13T05:55:16;100970.91;;;14.23;100.00
69766;BME280;57039;48.014;21.384;2023-10-13T05:56:37;100968.00;;;14.28;100.00
69766;BME280;57039;48.014;21.384;2023-10-13T05:58:00;100973.84;;;14.33;100.00
69766;BME280;57039;48.014;21.384;2023-10-13T05:59:21;100974.38;;;14.38;100.00